createdAt,value
2017-11-09T00:00:39.104Z,0.00
2017-11-09T00:01:39.083Z,0.00
2017-11-09T00:02:39.074Z,0.00
2017-11-09T00:03:39.061Z,0.00
2017-11-09T00:04:39.050Z,0.00
2017-11-09T00:05:39.039Z,0.00
2017-11-09T00:06:39.029Z,0.00
2017-11-09T00:07:39.017Z,0.00
2017-11-09T00:08:39.011Z,0.00
2017-11-09T00:09:38.996Z,0.00
2017-11-09T00:10:38.985Z,0.00
2017-11-09T00:11:38.976Z,0.00
2017-11-09T00:12:38.987Z,0.00
2017-11-09T00:13:38.954Z,0.00
2017-11-09T00:14:38.944Z,0.00
2017-11-09T00:15:38.932Z,0.00
2017-11-09T00:16:38.922Z,0.00
2017-11-09T00:17:38.910Z,0.00
2017-11-09T00:18:38.902Z,0.00
2017-11-09T00:19:38.897Z,0.00
2017-11-09T00:20:38.888Z,0.00
2017-11-09T00:21:38.868Z,0.00
2017-11-09T00:22:38.857Z,0.00
2017-11-09T00:23:38.898Z,0.00
2017-11-09T00:24:38.860Z,0.00
2017-11-09T00:25:38.827Z,0.00
2017-11-09T00:26:38.817Z,0.00
2017-11-09T00:27:38.807Z,0.00
2017-11-09T00:28:38.794Z,0.00
2017-11-09T00:29:38.784Z,0.00
2017-11-09T00:30:38.780Z,0.00
2017-11-09T00:31:38.759Z,0.00
2017-11-09T00:32:38.750Z,0.00
2017-11-09T00:33:38.737Z,0.00
2017-11-09T00:34:38.732Z,0.00
2017-11-09T00:35:38.730Z,0.00
2017-11-09T00:36:38.706Z,0.00
2017-11-09T00:37:38.695Z,0.00
2017-11-09T00:38:38.686Z,0.00
2017-11-09T00:39:38.673Z,0.00
2017-11-09T00:40:38.663Z,0.00
2017-11-09T00:41:38.666Z,0.00
2017-11-09T00:42:38.640Z,0.00
2017-11-09T00:43:38.629Z,0.00
2017-11-09T00:44:38.621Z,0.00
2017-11-09T00:45:38.610Z,0.00
2017-11-09T00:46:38.603Z,0.00
2017-11-09T00:47:38.590Z,0.00
2017-11-09T00:48:38.581Z,0.00
2017-11-09T00:49:38.567Z,0.00
2017-11-09T00:50:38.555Z,0.00
2017-11-09T00:51:38.549Z,0.00
2017-11-09T00:52:38.538Z,0.00
2017-11-09T00:53:38.544Z,0.00
2017-11-09T00:54:38.511Z,0.00
2017-11-09T00:55:38.503Z,0.00
2017-11-09T00:56:38.491Z,0.00
2017-11-09T00:57:38.479Z,0.00
2017-11-09T00:58:38.492Z,0.00
2017-11-09T00:59:38.458Z,0.00
2017-11-09T01:00:38.447Z,0.00
2017-11-09T01:01:38.437Z,0.00
2017-11-09T01:02:38.426Z,0.00
2017-11-09T01:03:38.414Z,0.00
2017-11-09T01:04:38.415Z,0.00
2017-11-09T01:05:38.394Z,0.00
2017-11-09T01:06:38.382Z,0.00
2017-11-09T01:07:38.371Z,0.00
2017-11-09T01:08:38.360Z,0.00
2017-11-09T01:09:38.350Z,0.00
2017-11-09T01:10:38.365Z,0.00
2017-11-09T01:11:38.340Z,0.00
2017-11-09T01:12:38.325Z,0.00
2017-11-09T01:13:38.306Z,0.00
2017-11-09T01:14:38.299Z,0.00
2017-11-09T01:15:38.310Z,0.00
2017-11-09T01:16:38.282Z,0.00
2017-11-09T01:17:38.285Z,0.00
2017-11-09T01:18:38.256Z,0.00
2017-11-09T01:19:38.243Z,0.00
2017-11-09T01:20:38.232Z,0.00
2017-11-09T01:21:38.242Z,0.00
2017-11-09T01:22:38.209Z,0.00
2017-11-09T01:23:38.198Z,0.00
2017-11-09T01:24:38.189Z,0.00
2017-11-09T01:25:38.176Z,0.00
2017-11-09T01:26:38.193Z,0.00
2017-11-09T01:27:38.165Z,0.00
2017-11-09T01:28:38.151Z,0.00
2017-11-09T01:29:38.134Z,0.00
2017-11-09T01:30:38.124Z,0.00
2017-11-09T01:31:38.128Z,0.00
2017-11-09T01:32:38.104Z,0.00
2017-11-09T01:33:38.102Z,0.00
2017-11-09T01:34:38.096Z,0.00
2017-11-09T01:35:38.070Z,0.00
2017-11-09T01:36:38.058Z,0.00
2017-11-09T01:37:38.047Z,0.00
2017-11-09T01:38:38.035Z,0.00
2017-11-09T01:39:38.036Z,0.00
2017-11-09T01:40:38.020Z,0.00
2017-11-09T01:41:38.009Z,0.00
2017-11-09T01:42:37.995Z,0.00
2017-11-09T01:43:37.982Z,0.00
2017-11-09T01:44:37.987Z,0.00
2017-11-09T01:45:37.960Z,0.00
2017-11-09T01:46:37.956Z,0.00
2017-11-09T01:47:37.946Z,0.00
2017-11-09T01:48:37.927Z,0.00
2017-11-09T01:49:37.933Z,0.00
2017-11-09T01:50:37.907Z,0.00
2017-11-09T01:51:37.894Z,0.00
2017-11-09T01:52:37.883Z,0.00
2017-11-09T01:53:37.890Z,0.00
2017-11-09T01:54:37.865Z,0.00
2017-11-09T01:55:37.851Z,0.00
2017-11-09T01:56:37.845Z,0.00
2017-11-09T01:57:37.829Z,0.00
2017-11-09T01:58:37.828Z,0.00
2017-11-09T01:59:37.807Z,0.00
2017-11-09T02:00:37.799Z,0.00
2017-11-09T02:01:37.807Z,0.00
2017-11-09T02:02:37.779Z,0.00
2017-11-09T02:03:37.764Z,0.00
2017-11-09T02:04:37.759Z,0.00
2017-11-09T02:05:37.745Z,0.00
2017-11-09T02:06:37.736Z,0.00
2017-11-09T02:07:37.733Z,0.00
2017-11-09T02:08:37.714Z,0.00
2017-11-09T02:09:37.700Z,0.00
2017-11-09T02:10:37.691Z,0.00
2017-11-09T02:11:37.677Z,0.00
2017-11-09T02:12:37.681Z,0.00
2017-11-09T02:13:37.657Z,0.00
2017-11-09T02:14:37.644Z,0.00
2017-11-09T02:15:37.670Z,0.00
2017-11-09T02:16:37.624Z,0.00
2017-11-09T02:17:37.613Z,0.00
2017-11-09T02:18:37.604Z,0.00
2017-11-09T02:19:37.593Z,0.00
2017-11-09T02:20:37.583Z,0.00
2017-11-09T02:21:37.588Z,0.00
2017-11-09T02:22:37.557Z,0.00
2017-11-09T02:23:37.546Z,0.00
2017-11-09T02:24:37.553Z,0.00
2017-11-09T02:25:37.526Z,0.00
2017-11-09T02:26:37.512Z,0.00
2017-11-09T02:27:37.518Z,0.00
2017-11-09T02:28:37.495Z,0.00
2017-11-09T02:29:37.494Z,0.00
2017-11-09T02:30:37.470Z,0.00
2017-11-09T02:31:37.459Z,0.00
2017-11-09T02:32:37.458Z,0.00
2017-11-09T02:33:37.448Z,0.00
2017-11-09T02:34:37.427Z,0.00
2017-11-09T02:35:37.419Z,0.00
2017-11-09T02:36:37.410Z,0.00
2017-11-09T02:37:37.434Z,0.00
2017-11-09T02:38:37.388Z,0.00
2017-11-09T02:39:37.385Z,0.00
2017-11-09T02:40:37.361Z,0.00
2017-11-09T02:41:37.350Z,0.00
2017-11-09T02:42:37.339Z,0.00
2017-11-09T02:43:37.329Z,0.00
2017-11-09T02:44:37.333Z,0.00
2017-11-09T02:45:37.329Z,0.00
2017-11-09T02:46:37.295Z,0.00
2017-11-09T02:47:37.287Z,0.00
2017-11-09T02:48:37.288Z,0.00
2017-11-09T02:49:37.263Z,0.00
2017-11-09T02:50:37.260Z,0.00
2017-11-09T02:51:37.278Z,0.00
2017-11-09T02:52:37.241Z,0.00
2017-11-09T02:53:37.219Z,0.00
2017-11-09T02:54:37.207Z,0.00
2017-11-09T02:55:37.206Z,0.00
2017-11-09T02:56:37.193Z,0.00
2017-11-09T02:57:37.180Z,0.00
2017-11-09T02:58:37.165Z,0.00
2017-11-09T02:59:37.154Z,0.00
2017-11-09T03:00:37.146Z,0.00
2017-11-09T03:01:37.132Z,0.00
2017-11-09T03:02:37.134Z,0.00
2017-11-09T03:03:37.109Z,0.00
2017-11-09T03:04:37.100Z,0.00
2017-11-09T03:05:37.095Z,0.00
2017-11-09T03:06:37.077Z,0.00
2017-11-09T03:07:37.087Z,0.00
2017-11-09T03:08:37.090Z,0.00
2017-11-09T03:09:37.112Z,0.00
2017-11-09T03:10:37.038Z,0.00
2017-11-09T03:11:37.025Z,0.00
2017-11-09T03:12:37.014Z,0.00
2017-11-09T03:13:37.015Z,0.00
2017-11-09T03:14:36.988Z,0.00
2017-11-09T03:15:36.983Z,0.00
2017-11-09T03:16:36.976Z,0.00
2017-11-09T03:17:36.968Z,0.00
2017-11-09T03:18:36.946Z,0.00
2017-11-09T03:19:36.963Z,0.00
2017-11-09T03:20:36.926Z,0.00
2017-11-09T03:21:36.929Z,0.00
2017-11-09T03:22:36.936Z,0.00
2017-11-09T03:23:36.894Z,0.00
2017-11-09T03:24:36.883Z,0.00
2017-11-09T03:25:36.875Z,0.00
2017-11-09T03:26:36.863Z,0.00
2017-11-09T03:27:36.850Z,0.00
2017-11-09T03:28:36.842Z,0.00
2017-11-09T03:29:36.829Z,0.00
2017-11-09T03:30:36.819Z,0.00
2017-11-09T03:31:36.811Z,0.00
2017-11-09T03:32:36.797Z,0.00
2017-11-09T03:33:36.793Z,0.00
2017-11-09T03:34:36.782Z,0.00
2017-11-09T03:35:36.763Z,0.00
2017-11-09T03:36:36.778Z,0.00
2017-11-09T03:37:36.743Z,0.00
2017-11-09T03:38:36.729Z,0.00
2017-11-09T03:39:36.724Z,0.00
2017-11-09T03:40:36.709Z,0.00
2017-11-09T03:41:36.703Z,0.00
2017-11-09T03:42:36.683Z,0.00
2017-11-09T03:43:36.683Z,0.00
2017-11-09T03:44:36.665Z,0.00
2017-11-09T03:45:36.661Z,0.00
2017-11-09T03:46:36.647Z,0.00
2017-11-09T03:47:36.632Z,0.00
2017-11-09T03:48:36.630Z,0.00
2017-11-09T03:49:36.617Z,0.00
2017-11-09T03:50:36.649Z,0.00
2017-11-09T03:51:36.610Z,0.00
2017-11-09T03:52:36.582Z,0.00
2017-11-09T03:53:36.566Z,0.00
2017-11-09T03:54:36.578Z,0.00
2017-11-09T03:55:36.571Z,0.00
2017-11-09T03:56:36.537Z,0.00
2017-11-09T03:57:36.527Z,0.00
2017-11-09T03:58:36.510Z,0.00
2017-11-09T03:59:36.501Z,0.00
2017-11-09T04:00:36.496Z,0.00
2017-11-09T04:01:36.482Z,0.00
2017-11-09T04:02:36.469Z,0.00
2017-11-09T04:03:36.467Z,0.00
2017-11-09T04:04:36.446Z,0.00
2017-11-09T04:05:36.446Z,0.00
2017-11-09T04:06:36.442Z,0.00
2017-11-09T04:07:36.414Z,0.00
2017-11-09T04:08:36.407Z,0.00
2017-11-09T04:09:36.398Z,0.00
2017-11-09T04:10:36.385Z,0.00
2017-11-09T04:11:36.378Z,0.00
2017-11-09T04:12:36.367Z,0.00
2017-11-09T04:13:36.351Z,0.00
2017-11-09T04:14:36.395Z,0.00
2017-11-09T04:15:36.361Z,0.00
2017-11-09T04:16:36.322Z,0.00
2017-11-09T04:17:36.305Z,0.00
2017-11-09T04:18:36.317Z,0.00
2017-11-09T04:19:36.302Z,0.00
2017-11-09T04:20:36.278Z,0.00
2017-11-09T04:21:36.260Z,0.00
2017-11-09T04:22:36.250Z,0.00
2017-11-09T04:23:36.239Z,0.00
2017-11-09T04:24:36.234Z,0.00
2017-11-09T04:25:36.218Z,0.00
2017-11-09T04:26:36.209Z,0.00
2017-11-09T04:27:36.196Z,0.00
2017-11-09T04:28:36.184Z,0.00
2017-11-09T04:29:36.179Z,0.00
2017-11-09T04:30:36.168Z,0.00
2017-11-09T04:31:36.150Z,0.00
2017-11-09T04:32:36.140Z,0.00
2017-11-09T04:33:36.129Z,0.00
2017-11-09T04:34:36.117Z,0.00
2017-11-09T04:35:36.106Z,0.00
2017-11-09T04:36:36.096Z,0.00
2017-11-09T04:37:36.090Z,0.00
2017-11-09T04:38:36.073Z,0.00
2017-11-09T04:39:36.062Z,0.00
2017-11-09T04:40:36.052Z,0.00
2017-11-09T04:41:36.042Z,0.00
2017-11-09T04:42:36.031Z,0.00
2017-11-09T04:43:36.040Z,0.00
2017-11-09T04:44:36.007Z,0.00
2017-11-09T04:45:35.997Z,0.00
2017-11-09T04:46:35.991Z,0.00
2017-11-09T04:47:35.980Z,0.00
2017-11-09T04:48:35.970Z,0.00
2017-11-09T04:49:35.954Z,0.00
2017-11-09T04:50:35.945Z,0.00
2017-11-09T04:51:35.941Z,0.00
2017-11-09T04:52:35.925Z,0.00
2017-11-09T04:53:35.912Z,0.00
2017-11-09T04:54:35.907Z,0.00
2017-11-09T04:55:35.889Z,0.00
2017-11-09T04:56:35.900Z,0.00
2017-11-09T04:57:35.870Z,0.00
2017-11-09T04:58:35.855Z,0.00
2017-11-09T04:59:35.852Z,0.00
2017-11-09T05:00:35.836Z,0.00
2017-11-09T05:01:35.831Z,0.00
2017-11-09T05:02:35.812Z,0.00
2017-11-09T05:03:35.804Z,0.00
2017-11-09T05:04:35.793Z,0.00
2017-11-09T05:05:35.784Z,0.00
2017-11-09T05:06:35.775Z,0.00
2017-11-09T05:07:35.763Z,0.00
2017-11-09T05:08:35.748Z,0.00
2017-11-09T05:09:35.735Z,0.00
2017-11-09T05:10:35.729Z,0.00
2017-11-09T05:11:35.717Z,0.00
2017-11-09T05:12:35.705Z,0.00
2017-11-09T05:13:35.707Z,0.00
2017-11-09T05:14:35.682Z,0.00
2017-11-09T05:15:35.672Z,0.00
2017-11-09T05:16:35.681Z,0.00
2017-11-09T05:17:35.650Z,0.00
2017-11-09T05:18:35.647Z,0.00
2017-11-09T05:19:35.627Z,0.00
2017-11-09T05:20:35.623Z,0.00
2017-11-09T05:21:35.605Z,0.00
2017-11-09T05:22:35.607Z,0.00
2017-11-09T05:23:35.588Z,0.00
2017-11-09T05:24:35.579Z,0.00
2017-11-09T05:25:35.562Z,0.00
2017-11-09T05:26:35.552Z,0.00
2017-11-09T05:27:35.542Z,0.00
2017-11-09T05:28:35.534Z,0.00
2017-11-09T05:29:35.518Z,0.00
2017-11-09T05:30:35.507Z,0.00
2017-11-09T05:31:35.499Z,0.00
2017-11-09T05:32:35.489Z,0.00
2017-11-09T05:33:35.477Z,0.00
2017-11-09T05:34:35.461Z,0.00
2017-11-09T05:35:35.452Z,0.00
2017-11-09T05:36:35.443Z,0.00
2017-11-09T05:37:35.429Z,0.00
2017-11-09T05:38:35.420Z,0.00
2017-11-09T05:39:35.406Z,0.00
2017-11-09T05:40:35.395Z,0.00
2017-11-09T05:41:35.382Z,0.00
2017-11-09T05:42:35.373Z,0.00
2017-11-09T05:43:35.365Z,0.00
2017-11-09T05:44:35.354Z,0.00
2017-11-09T05:45:35.344Z,0.00
2017-11-09T05:46:35.351Z,0.00
2017-11-09T05:47:35.316Z,0.00
2017-11-09T05:48:35.306Z,0.00
2017-11-09T05:49:35.296Z,0.00
2017-11-09T05:50:35.283Z,0.00
2017-11-09T05:51:35.279Z,0.00
2017-11-09T05:52:35.266Z,0.00
2017-11-09T05:53:35.249Z,0.00
2017-11-09T05:54:35.250Z,0.00
2017-11-09T05:55:35.230Z,0.00
2017-11-09T05:56:35.217Z,0.00
2017-11-09T05:57:35.209Z,0.00
2017-11-09T05:58:35.196Z,0.00
2017-11-09T05:59:35.184Z,0.00
2017-11-09T06:00:35.179Z,0.00
2017-11-09T06:01:35.162Z,0.00
2017-11-09T06:02:35.155Z,0.00
2017-11-09T06:03:35.142Z,0.00
2017-11-09T06:04:35.128Z,0.00
2017-11-09T06:05:35.119Z,0.00
2017-11-09T06:06:35.107Z,0.00
2017-11-09T06:07:35.096Z,0.00
2017-11-09T06:08:35.086Z,0.00
2017-11-09T06:09:35.077Z,0.00
2017-11-09T06:10:35.062Z,0.00
2017-11-09T06:11:35.086Z,0.00
2017-11-09T06:12:35.041Z,0.00
2017-11-09T06:13:35.033Z,4.00
2017-11-09T06:14:35.030Z,4.00
2017-11-09T06:15:35.044Z,0.00
2017-11-09T06:16:35.056Z,0.00
2017-11-09T06:17:35.008Z,4.00
2017-11-09T06:18:34.988Z,4.00
2017-11-09T06:19:34.967Z,4.00
2017-11-09T06:20:34.998Z,4.00
2017-11-09T06:21:34.948Z,4.00
2017-11-09T06:22:34.932Z,4.00
2017-11-09T06:23:34.919Z,4.00
2017-11-09T06:24:34.914Z,8.00
2017-11-09T06:25:34.915Z,12.00
2017-11-09T06:26:34.889Z,12.00
2017-11-09T06:27:34.878Z,12.00
2017-11-09T06:28:34.876Z,12.00
2017-11-09T06:29:34.855Z,16.00
2017-11-09T06:30:34.883Z,20.00
2017-11-09T06:31:34.852Z,24.00
2017-11-09T06:32:34.860Z,24.00
2017-11-09T06:33:34.853Z,32.00
2017-11-09T06:34:34.802Z,36.00
2017-11-09T06:35:34.803Z,40.00
2017-11-09T06:36:34.799Z,36.00
2017-11-09T06:37:34.783Z,40.00
2017-11-09T06:38:34.784Z,44.00
2017-11-09T06:39:34.748Z,52.00
2017-11-09T06:40:34.731Z,48.00
2017-11-09T06:41:34.733Z,56.00
2017-11-09T06:42:34.709Z,56.00
2017-11-09T06:43:34.703Z,56.00
2017-11-09T06:44:34.692Z,60.00
2017-11-09T06:45:34.682Z,64.00
2017-11-09T06:46:34.664Z,80.00
2017-11-09T06:47:34.653Z,92.00
2017-11-09T06:48:34.643Z,100.00
2017-11-09T06:49:34.637Z,92.00
2017-11-09T06:50:34.620Z,88.00
2017-11-09T06:51:34.618Z,88.00
2017-11-09T06:52:34.600Z,96.00
2017-11-09T06:53:34.586Z,108.00
2017-11-09T06:54:34.577Z,132.00
2017-11-09T06:55:34.568Z,148.00
2017-11-09T06:56:34.561Z,168.00
2017-11-09T06:57:34.545Z,184.00
2017-11-09T06:58:34.534Z,200.00
2017-11-09T06:59:34.520Z,208.00
2017-11-09T07:00:34.508Z,224.00
2017-11-09T07:01:34.498Z,220.00
2017-11-09T07:02:34.487Z,228.00
2017-11-09T07:03:34.495Z,240.00
2017-11-09T07:04:34.465Z,244.00
2017-11-09T07:05:34.453Z,260.00
2017-11-09T07:06:34.447Z,276.00
2017-11-09T07:07:34.431Z,272.00
2017-11-09T07:08:34.420Z,312.00
2017-11-09T07:09:34.408Z,344.00
2017-11-09T07:10:34.398Z,364.00
2017-11-09T07:11:34.385Z,396.00
2017-11-09T07:12:34.379Z,392.00
2017-11-09T07:13:34.366Z,364.00
2017-11-09T07:14:34.354Z,364.00
2017-11-09T07:15:34.524Z,392.00
2017-11-09T07:16:34.331Z,404.00
2017-11-09T07:17:34.319Z,460.00
2017-11-09T07:18:34.326Z,484.00
2017-11-09T07:19:34.299Z,516.00
2017-11-09T07:20:34.290Z,544.00
2017-11-09T07:21:34.275Z,584.00
2017-11-09T07:22:34.266Z,640.00
2017-11-09T07:23:34.254Z,680.00
2017-11-09T07:24:34.245Z,684.00
2017-11-09T07:25:34.233Z,696.00
2017-11-09T07:26:34.229Z,688.00
2017-11-09T07:27:34.210Z,696.00
2017-11-09T07:28:34.199Z,700.00
2017-11-09T07:29:34.191Z,700.00
2017-11-09T07:30:34.177Z,660.00
2017-11-09T07:31:34.165Z,708.00
2017-11-09T07:32:34.154Z,748.00
2017-11-09T07:33:34.150Z,724.00
2017-11-09T07:34:34.132Z,756.00
2017-11-09T07:35:34.127Z,820.00
2017-11-09T07:36:34.110Z,824.00
2017-11-09T07:37:34.101Z,816.00
2017-11-09T07:38:34.090Z,832.00
2017-11-09T07:39:34.080Z,844.00
2017-11-09T07:40:34.066Z,920.00
2017-11-09T07:41:34.072Z,984.00
2017-11-09T07:42:34.043Z,1028.00
2017-11-09T07:43:34.034Z,1112.00
2017-11-09T07:44:34.037Z,1236.00
2017-11-09T07:45:34.013Z,1232.00
2017-11-09T07:46:34.003Z,1196.00
2017-11-09T07:47:33.998Z,1132.00
2017-11-09T07:48:33.980Z,1180.00
2017-11-09T07:49:33.970Z,1148.00
2017-11-09T07:50:33.955Z,1200.00
2017-11-09T07:51:33.972Z,1212.00
2017-11-09T07:52:33.934Z,1260.00
2017-11-09T07:53:33.923Z,1356.00
2017-11-09T07:54:33.911Z,1332.00
2017-11-09T07:55:33.906Z,1456.00
2017-11-09T07:56:33.892Z,1572.00
2017-11-09T07:57:33.891Z,1576.00
2017-11-09T07:58:33.892Z,1560.00
2017-11-09T07:59:33.857Z,1520.00
2017-11-09T08:00:33.846Z,1476.00
2017-11-09T08:01:33.834Z,1448.00
2017-11-09T08:02:36.499Z,1580.00
2017-11-09T08:03:33.825Z,1632.00
2017-11-09T08:04:33.823Z,1708.00
2017-11-09T08:05:33.791Z,1716.00
2017-11-09T08:06:33.779Z,1680.00
2017-11-09T08:07:33.768Z,1532.00
2017-11-09T08:08:33.759Z,1556.00
2017-11-09T08:09:33.748Z,1424.00
2017-11-09T08:10:33.782Z,1376.00
2017-11-09T08:11:33.726Z,1476.00
2017-11-09T08:12:34.471Z,1752.00
2017-11-09T08:13:33.707Z,1576.00
2017-11-09T08:14:33.691Z,1552.00
2017-11-09T08:15:33.695Z,1480.00
2017-11-09T08:16:33.680Z,1392.00
2017-11-09T08:17:33.665Z,1524.00
2017-11-09T08:18:33.650Z,1428.00
2017-11-09T08:19:33.641Z,1380.00
2017-11-09T08:20:33.625Z,1448.00
2017-11-09T08:21:33.620Z,1468.00
2017-11-09T08:22:33.604Z,1636.00
2017-11-09T08:23:33.609Z,1540.00
2017-11-09T08:24:33.582Z,1620.00
2017-11-09T08:25:33.588Z,1580.00
2017-11-09T08:26:33.565Z,1596.00
2017-11-09T08:27:33.577Z,1548.00
2017-11-09T08:28:33.542Z,1464.00
2017-11-09T08:29:33.537Z,1288.00
2017-11-09T08:30:33.525Z,1260.00
2017-11-09T08:31:33.526Z,1320.00
2017-11-09T08:32:33.505Z,1300.00
2017-11-09T08:33:33.506Z,1324.00
2017-11-09T08:34:33.473Z,1328.00
2017-11-09T08:35:33.464Z,1412.00
2017-11-09T08:36:33.454Z,1804.00
2017-11-09T08:37:33.442Z,2092.00
2017-11-09T08:38:33.435Z,2244.00
2017-11-09T08:39:33.454Z,2308.00
2017-11-09T08:40:33.463Z,2064.00
2017-11-09T08:41:33.458Z,2208.00
2017-11-09T08:42:33.387Z,2588.00
2017-11-09T08:43:33.380Z,3008.00
2017-11-09T08:44:33.384Z,3040.00
2017-11-09T08:45:33.360Z,2940.00
2017-11-09T08:46:33.343Z,3048.00
2017-11-09T08:47:33.333Z,3228.00
2017-11-09T08:48:33.325Z,2972.00
2017-11-09T08:49:33.325Z,2956.00
2017-11-09T08:50:33.313Z,3064.00
2017-11-09T08:51:33.295Z,2952.00
2017-11-09T08:52:33.277Z,3384.00
2017-11-09T08:53:33.277Z,3672.00
2017-11-09T08:54:33.259Z,3796.00
2017-11-09T08:55:33.256Z,4068.00
2017-11-09T08:56:33.243Z,4428.00
2017-11-09T08:57:33.230Z,5232.00
2017-11-09T08:58:33.210Z,6916.00
2017-11-09T08:59:33.210Z,7936.00
2017-11-09T09:00:33.192Z,8836.00
2017-11-09T09:01:33.183Z,9612.00
2017-11-09T09:02:33.169Z,10136.00
2017-11-09T09:03:33.156Z,10928.00
2017-11-09T09:04:33.151Z,10736.00
2017-11-09T09:05:33.138Z,10624.00
2017-11-09T09:06:33.124Z,10384.00
2017-11-09T09:07:33.116Z,9676.00
2017-11-09T09:08:33.112Z,9552.00
2017-11-09T09:09:33.125Z,10144.00
2017-11-09T09:10:33.084Z,11060.00
2017-11-09T09:11:33.097Z,11032.00
2017-11-09T09:12:33.070Z,11520.00
2017-11-09T09:13:33.052Z,11612.00
2017-11-09T09:14:33.042Z,12492.00
2017-11-09T09:15:33.042Z,14120.00
2017-11-09T09:16:33.018Z,15380.00
2017-11-09T09:17:33.009Z,14460.00
2017-11-09T09:18:32.998Z,13224.00
2017-11-09T09:19:33.005Z,12300.00
2017-11-09T09:20:32.978Z,12640.00
2017-11-09T09:21:32.968Z,12184.00
2017-11-09T09:22:32.957Z,12196.00
2017-11-09T09:23:32.951Z,12304.00
2017-11-09T09:24:32.938Z,13236.00
2017-11-09T09:25:32.932Z,13348.00
2017-11-09T09:26:32.944Z,12836.00
2017-11-09T09:27:32.907Z,13112.00
2017-11-09T09:28:32.899Z,13392.00
2017-11-09T09:29:32.893Z,12904.00
2017-11-09T09:30:32.876Z,10224.00
2017-11-09T09:31:32.868Z,10128.00
2017-11-09T09:32:32.871Z,11864.00
2017-11-09T09:33:32.863Z,10876.00
2017-11-09T09:34:32.842Z,10768.00
2017-11-09T09:35:32.834Z,9180.00
2017-11-09T09:36:32.821Z,8564.00
2017-11-09T09:37:32.815Z,9948.00
2017-11-09T09:38:32.815Z,11140.00
2017-11-09T09:39:32.805Z,12340.00
2017-11-09T09:40:32.784Z,13140.00
2017-11-09T09:41:32.771Z,13060.00
2017-11-09T09:42:32.760Z,13196.00
2017-11-09T09:43:32.751Z,14948.00
2017-11-09T09:44:32.757Z,15444.00
2017-11-09T09:45:32.734Z,15776.00
2017-11-09T09:46:32.723Z,13552.00
2017-11-09T09:47:32.715Z,11372.00
2017-11-09T09:48:32.715Z,10288.00
2017-11-09T09:49:32.694Z,8028.00
2017-11-09T09:50:32.689Z,7768.00
2017-11-09T09:51:32.675Z,8704.00
2017-11-09T09:52:32.688Z,7280.00
2017-11-09T09:53:32.658Z,7516.00
2017-11-09T09:54:32.665Z,9652.00
2017-11-09T09:55:32.757Z,10156.00
2017-11-09T09:56:32.632Z,9568.00
2017-11-09T09:57:32.633Z,9632.00
2017-11-09T09:58:32.622Z,10796.00
2017-11-09T09:59:32.601Z,11052.00
2017-11-09T10:00:32.595Z,8628.00
2017-11-09T10:01:32.584Z,7380.00
2017-11-09T10:02:32.584Z,6452.00
2017-11-09T10:03:32.565Z,5760.00
2017-11-09T10:04:32.734Z,5524.00
2017-11-09T10:05:32.560Z,5028.00
2017-11-09T10:06:32.543Z,5124.00
2017-11-09T10:07:32.528Z,4156.00
2017-11-09T10:08:32.516Z,3460.00
2017-11-09T10:09:32.612Z,3568.00
2017-11-09T10:10:32.500Z,4288.00
2017-11-09T10:11:32.536Z,4976.00
2017-11-09T10:12:32.479Z,5708.00
2017-11-09T10:13:32.470Z,5748.00
2017-11-09T10:14:32.462Z,6016.00
2017-11-09T10:15:32.447Z,6580.00
2017-11-09T10:16:32.439Z,6644.00
2017-11-09T10:17:32.439Z,7388.00
2017-11-09T10:18:32.439Z,7892.00
2017-11-09T10:19:32.410Z,7060.00
2017-11-09T10:20:32.402Z,6484.00
2017-11-09T10:21:32.393Z,7508.00
2017-11-09T10:22:32.386Z,7084.00
2017-11-09T10:23:32.468Z,7200.00
2017-11-09T10:24:32.362Z,7912.00
2017-11-09T10:25:32.352Z,7076.00
2017-11-09T10:26:32.345Z,8872.00
2017-11-09T10:27:32.330Z,6696.00
2017-11-09T10:28:32.321Z,6896.00
2017-11-09T10:29:32.312Z,7276.00
2017-11-09T10:30:32.300Z,8432.00
2017-11-09T10:31:32.291Z,7476.00
2017-11-09T10:32:32.284Z,5976.00
2017-11-09T10:33:32.275Z,5496.00
2017-11-09T10:34:32.263Z,7420.00
2017-11-09T10:35:32.252Z,7844.00
2017-11-09T10:36:32.243Z,7404.00
2017-11-09T10:37:32.237Z,9980.00
2017-11-09T10:38:32.231Z,12244.00
2017-11-09T10:39:32.213Z,13964.00
2017-11-09T10:40:32.202Z,16640.00
2017-11-09T10:41:32.253Z,14092.00
2017-11-09T10:42:33.016Z,11752.00
2017-11-09T10:43:32.173Z,7608.00
2017-11-09T10:44:32.233Z,6892.00
2017-11-09T10:45:32.215Z,5476.00
2017-11-09T10:46:32.146Z,5140.00
2017-11-09T10:47:32.142Z,4876.00
2017-11-09T10:48:32.137Z,5216.00
2017-11-09T10:49:32.149Z,5788.00
2017-11-09T10:50:32.105Z,5492.00
2017-11-09T10:51:32.099Z,5816.00
2017-11-09T10:52:32.089Z,5348.00
2017-11-09T10:53:32.081Z,6224.00
2017-11-09T10:54:32.066Z,6200.00
2017-11-09T10:55:32.055Z,5836.00
2017-11-09T10:56:32.049Z,6964.00
2017-11-09T10:57:32.098Z,11428.00
2017-11-09T10:58:32.027Z,10008.00
2017-11-09T10:59:32.031Z,8748.00
2017-11-09T11:00:32.006Z,7360.00
2017-11-09T11:01:31.996Z,5428.00
2017-11-09T11:02:31.989Z,5364.00
2017-11-09T11:03:31.977Z,6072.00
2017-11-09T11:04:31.970Z,9668.00
2017-11-09T11:05:31.958Z,13016.00
2017-11-09T11:06:31.989Z,12764.00
2017-11-09T11:07:31.942Z,10312.00
2017-11-09T11:08:31.928Z,8212.00
2017-11-09T11:09:31.920Z,6244.00
2017-11-09T11:10:31.909Z,5480.00
2017-11-09T11:11:31.904Z,3936.00
2017-11-09T11:12:31.887Z,3124.00
2017-11-09T11:13:31.892Z,2692.00
2017-11-09T11:14:31.868Z,2612.00
2017-11-09T11:15:31.860Z,3660.00
2017-11-09T11:16:31.849Z,3364.00
2017-11-09T11:17:31.838Z,3872.00
2017-11-09T11:18:31.830Z,3496.00
2017-11-09T11:19:31.831Z,3152.00
2017-11-09T11:20:31.812Z,3800.00
2017-11-09T11:21:31.808Z,3596.00
2017-11-09T11:22:31.787Z,4184.00
2017-11-09T11:23:31.779Z,4772.00
2017-11-09T11:24:31.769Z,6000.00
2017-11-09T11:25:31.767Z,5832.00
2017-11-09T11:26:31.750Z,5720.00
2017-11-09T11:27:31.744Z,5780.00
2017-11-09T11:28:31.735Z,5884.00
2017-11-09T11:29:31.728Z,6068.00
2017-11-09T11:30:31.712Z,5428.00
2017-11-09T11:31:31.708Z,5340.00
2017-11-09T11:32:31.687Z,5148.00
2017-11-09T11:33:31.677Z,4808.00
2017-11-09T11:34:31.673Z,4424.00
2017-11-09T11:35:31.659Z,4212.00
2017-11-09T11:36:31.665Z,4212.00
2017-11-09T11:37:31.636Z,4368.00
2017-11-09T11:38:31.628Z,4948.00
2017-11-09T11:39:31.620Z,5620.00
2017-11-09T11:40:31.610Z,5728.00
2017-11-09T11:41:31.598Z,6236.00
2017-11-09T11:42:31.594Z,6472.00
2017-11-09T11:43:31.580Z,6900.00
2017-11-09T11:44:31.569Z,6960.00
2017-11-09T11:45:31.563Z,7856.00
2017-11-09T11:46:31.552Z,8100.00
2017-11-09T11:47:31.546Z,8856.00
2017-11-09T11:48:31.531Z,9148.00
2017-11-09T11:49:31.535Z,8176.00
2017-11-09T11:50:31.516Z,7288.00
2017-11-09T11:51:31.495Z,7128.00
2017-11-09T11:52:31.496Z,7196.00
2017-11-09T11:53:31.477Z,7464.00
2017-11-09T11:54:31.469Z,7624.00
2017-11-09T11:55:31.457Z,7496.00
2017-11-09T11:56:31.453Z,6608.00
2017-11-09T11:57:31.436Z,5964.00
2017-11-09T11:58:31.427Z,5408.00
2017-11-09T11:59:31.414Z,4904.00
2017-11-09T12:00:31.412Z,5488.00
2017-11-09T12:01:31.394Z,5992.00
2017-11-09T12:02:31.393Z,6224.00
2017-11-09T12:03:31.376Z,6836.00
2017-11-09T12:04:31.362Z,6576.00
2017-11-09T12:05:31.353Z,6196.00
2017-11-09T12:06:31.343Z,6348.00
2017-11-09T12:07:31.351Z,5680.00
2017-11-09T12:08:31.324Z,5256.00
2017-11-09T12:09:31.313Z,4992.00
2017-11-09T12:10:31.308Z,4272.00
2017-11-09T12:11:31.298Z,3868.00
2017-11-09T12:12:31.284Z,3864.00
2017-11-09T12:13:31.283Z,4280.00
2017-11-09T12:14:31.302Z,4756.00
2017-11-09T12:15:31.252Z,4728.00
2017-11-09T12:16:31.243Z,4800.00
2017-11-09T12:17:31.232Z,4380.00
2017-11-09T12:18:31.226Z,4332.00
2017-11-09T12:19:31.262Z,4672.00
2017-11-09T12:20:31.213Z,4128.00
2017-11-09T12:21:31.194Z,3272.00
2017-11-09T12:22:31.179Z,3184.00
2017-11-09T12:23:31.172Z,3268.00
2017-11-09T12:24:31.162Z,3660.00
2017-11-09T12:25:32.023Z,3556.00
2017-11-09T12:26:31.139Z,4160.00
2017-11-09T12:27:31.129Z,5196.00
2017-11-09T12:28:31.118Z,5576.00
2017-11-09T12:29:31.110Z,6700.00
2017-11-09T12:30:31.106Z,6540.00
2017-11-09T12:31:31.085Z,5356.00
2017-11-09T12:32:31.076Z,4824.00
2017-11-09T12:33:31.069Z,4232.00
2017-11-09T12:34:31.054Z,4708.00
2017-11-09T12:35:31.044Z,4800.00
2017-11-09T12:36:31.033Z,5208.00
2017-11-09T12:37:31.024Z,5124.00
2017-11-09T12:38:31.016Z,4620.00
2017-11-09T12:39:31.003Z,4092.00
2017-11-09T12:40:30.993Z,4908.00
2017-11-09T12:41:30.984Z,5816.00
2017-11-09T12:42:30.970Z,5696.00